Time;durP1;ratioP1;P1;durP2;ratioP2;P2;SDS_P1;SDS_P2;PMS_P1;PMS_P2;Temp;Humidity;BMP_temperature;BMP_pressure;BME280_temperature;BME280_humidity;BME280_pressure;Samples;Min_cycle;Max_cycle;Signal;HPM_P1;HPM_P2
2022/07/08 00:01:46;;;;;;;1.92;0.95;;;19.70;89.30;;;;;;5027624;28;20060;-74
2022/07/08 00:04:11;;;;;;;2.45;0.95;;;19.70;89.30;;;;;;5027296;28;20041;-74
2022/07/08 00:06:37;;;;;;;2.05;1.02;;;19.70;89.30;;;;;;5027814;28;20068;-75
2022/07/08 00:09:03;;;;;;;1.63;0.70;;;19.70;89.30;;;;;;5009738;28;20170;-74
2022/07/08 00:11:29;;;;;;;3.10;1.00;;;19.60;89.40;;;;;;5009822;28;20109;-75
2022/07/08 00:13:54;;;;;;;2.17;1.00;;;19.60;89.50;;;;;;5006030;28;20026;-75
2022/07/08 00:16:20;;;;;;;2.38;0.95;;;19.60;89.40;;;;;;4991075;28;20026;-75
2022/07/08 00:18:45;;;;;;;2.67;1.23;;;19.60;89.60;;;;;;5027089;28;20116;-75
2022/07/08 00:21:11;;;;;;;1.67;0.85;;;19.60;89.60;;;;;;5027492;28;20041;-75
2022/07/08 00:23:36;;;;;;;1.58;0.80;;;19.60;89.40;;;;;;5026489;28;20033;-74
2022/07/08 00:26:02;;;;;;;2.03;1.02;;;19.60;89.60;;;;;;5006327;28;20029;-74
2022/07/08 00:28:28;;;;;;;2.95;1.00;;;19.60;89.70;;;;;;5020173;28;20062;-75
2022/07/08 00:30:53;;;;;;;4.00;1.13;;;19.60;89.60;;;;;;5026951;28;20046;-74
2022/07/08 00:33:18;;;;;;;2.63;1.45;;;19.50;89.60;;;;;;5008738;28;20029;-75
2022/07/08 00:35:44;;;;;;;2.08;0.98;;;19.50;89.80;;;;;;5009116;28;20060;-75
2022/07/08 00:38:09;;;;;;;2.63;0.98;;;19.60;89.90;;;;;;5008938;28;20025;-74
2022/07/08 00:40:35;;;;;;;2.63;1.17;;;19.60;89.90;;;;;;5027377;28;20483;-75
2022/07/08 00:43:01;;;;;;;1.70;0.90;;;19.60;89.80;;;;;;5025728;28;20029;-74
2022/07/08 00:45:27;;;;;;;2.83;1.10;;;19.60;89.70;;;;;;5026847;28;20061;-75
2022/07/08 00:47:53;;;;;;;2.40;1.00;;;19.70;89.70;;;;;;5008738;28;20036;-74
2022/07/08 00:50:18;;;;;;;2.08;1.05;;;19.70;89.50;;;;;;5009586;28;20550;-75
2022/07/08 00:52:45;;;;;;;2.33;1.05;;;19.60;89.30;;;;;;5008828;28;20140;-75
2022/07/08 00:55:10;;;;;;;2.08;1.00;;;19.60;89.40;;;;;;5026919;28;20128;-75
2022/07/08 00:57:38;;;;;;;3.47;1.00;;;19.60;89.40;;;;;;5009071;28;20449;-75
2022/07/08 01:00:05;;;;;;;2.17;0.90;;;19.60;89.40;;;;;;5026166;28;20104;-75
2022/07/08 01:02:30;;;;;;;2.17;0.85;;;19.60;89.50;;;;;;5008912;28;20118;-74
2022/07/08 01:04:56;;;;;;;1.90;0.88;;;19.60;89.60;;;;;;5008701;28;20473;-74
2022/07/08 01:07:23;;;;;;;2.42;1.10;;;19.60;89.50;;;;;;5026648;28;20025;-75
2022/07/08 01:09:49;;;;;;;2.17;1.00;;;19.50;89.60;;;;;;5009141;28;20025;-74
2022/07/08 01:12:14;;;;;;;2.45;0.90;;;19.60;89.60;;;;;;5008763;28;20036;-74
2022/07/08 01:14:40;;;;;;;2.40;0.93;;;19.50;89.60;;;;;;5026927;28;20029;-74
2022/07/08 01:17:06;;;;;;;2.58;1.15;;;19.50;89.50;;;;;;5008643;28;20033;-74
2022/07/08 01:19:34;;;;;;;3.10;0.98;;;19.50;89.70;;;;;;5008853;28;20069;-75
2022/07/08 01:22:00;;;;;;;2.53;1.10;;;19.50;89.50;;;;;;5025800;28;20037;-74
2022/07/08 01:24:26;;;;;;;2.13;1.05;;;19.50;89.70;;;;;;5026753;28;20691;-74
2022/07/08 01:26:51;;;;;;;2.63;0.90;;;19.50;90.00;;;;;;5008124;28;20423;-75
2022/07/08 01:29:17;;;;;;;2.63;1.20;;;19.50;89.90;;;;;;5008285;28;20037;-74
2022/07/08 01:31:42;;;;;;;2.50;1.08;;;19.50;89.90;;;;;;5007724;28;20048;-74
2022/07/08 01:34:08;;;;;;;2.97;0.93;;;19.60;89.80;;;;;;5026242;28;20037;-74
2022/07/08 01:36:33;;;;;;;1.65;0.90;;;19.60;90.10;;;;;;5025284;28;20049;-74
2022/07/08 01:38:59;;;;;;;2.53;0.90;;;19.60;89.60;;;;;;5026294;28;20108;-74
2022/07/08 01:41:25;;;;;;;3.92;1.00;;;19.60;89.50;;;;;;5025514;28;20029;-73
2022/07/08 01:43:50;;;;;;;2.15;1.05;;;19.60;89.40;;;;;;5026185;28;20552;-74
2022/07/08 01:46:16;;;;;;;3.08;1.13;;;19.60;90.00;;;;;;5008076;28;20109;-74
2022/07/08 01:48:42;;;;;;;1.70;0.95;;;19.60;89.50;;;;;;5026145;28;20564;-74
2022/07/08 01:51:07;;;;;;;2.47;0.90;;;19.60;89.50;;;;;;5008025;28;20029;-75
2022/07/08 01:53:33;;;;;;;1.77;0.90;;;19.60;89.60;;;;;;5023840;28;20064;-75
2022/07/08 01:55:58;;;;;;;1.92;0.90;;;19.60;89.60;;;;;;5006081;28;20486;-74
2022/07/08 01:58:24;;;;;;;1.90;1.00;;;19.50;89.60;;;;;;5024884;28;20024;-74
2022/07/08 02:00:50;;;;;;;2.88;0.98;;;19.50;89.70;;;;;;5024633;28;20440;-75
2022/07/08 02:03:15;;;;;;;2.13;0.90;;;19.50;89.60;;;;;;5025233;28;20079;-74
2022/07/08 02:05:41;;;;;;;3.58;1.10;;;19.50;89.60;;;;;;5008137;28;20040;-74
2022/07/08 02:08:06;;;;;;;2.83;1.00;;;19.50;89.90;;;;;;5007786;28;20018;-75
2022/07/08 02:13:17;;;;;;;1.08;0.70;;;19.50;89.80;;;;;;5025516;28;20444;-74
2022/07/08 02:15:44;;;;;;;2.35;1.10;;;19.50;89.80;;;;;;5007518;28;20025;-75
2022/07/08 02:18:09;;;;;;;1.67;1.00;;;19.50;90.00;;;;;;5008142;28;20120;-74
2022/07/08 02:20:35;;;;;;;2.28;1.08;;;19.50;90.00;;;;;;5008038;28;20120;-74
2022/07/08 02:23:01;;;;;;;2.05;0.98;;;19.50;89.90;;;;;;5007169;28;20048;-74
2022/07/08 02:25:26;;;;;;;2.88;1.13;;;19.50;89.80;;;;;;5008014;28;20509;-75
2022/07/08 02:27:52;;;;;;;1.45;0.90;;;19.50;89.70;;;;;;5025348;28;20120;-74
2022/07/08 02:30:17;;;;;;;2.30;0.90;;;19.60;89.60;;;;;;5007497;28;20018;-74
2022/07/08 02:32:42;;;;;;;2.35;0.90;;;19.60;89.50;;;;;;5007273;28;20138;-74
2022/07/08 02:35:08;;;;;;;1.63;0.88;;;19.60;89.50;;;;;;5006851;28;20029;-74
2022/07/08 02:37:34;;;;;;;2.22;0.90;;;19.60;89.60;;;;;;5007262;28;20029;-74
2022/07/08 02:39:59;;;;;;;2.45;0.95;;;19.50;89.50;;;;;;5003655;28;20029;-76
2022/07/08 02:42:24;;;;;;;2.42;1.00;;;19.60;89.60;;;;;;5007085;28;20143;-74
2022/07/08 02:44:50;;;;;;;2.35;1.00;;;19.50;89.60;;;;;;5007262;28;20022;-74
2022/07/08 02:47:15;;;;;;;2.50;1.00;;;19.50;89.70;;;;;;5025013;28;20435;-74
2022/07/08 02:49:41;;;;;;;1.70;0.88;;;19.50;89.80;;;;;;5008995;28;20067;-74
2022/07/08 02:52:07;;;;;;;2.25;1.02;;;19.50;89.70;;;;;;5008317;28;20103;-74
2022/07/08 02:54:32;;;;;;;1.85;1.02;;;19.50;89.70;;;;;;5024643;28;20111;-73
2022/07/08 02:56:58;;;;;;;2.38;1.00;;;19.50;89.80;;;;;;5025187;28;20029;-74
2022/07/08 02:59:23;;;;;;;2.75;1.05;;;19.50;89.80;;;;;;5006841;28;20025;-74
2022/07/08 03:01:49;;;;;;;2.25;1.00;;;19.50;90.00;;;;;;5024548;28;20028;-74
2022/07/08 03:04:14;;;;;;;2.72;1.00;;;19.50;89.90;;;;;;5023463;28;20029;-74
2022/07/08 03:06:40;;;;;;;2.08;1.00;;;19.50;90.00;;;;;;5025838;28;20049;-74
2022/07/08 03:09:06;;;;;;;2.33;1.00;;;19.50;90.00;;;;;;5028002;28;20401;-74
2022/07/08 03:11:31;;;;;;;1.95;0.90;;;19.50;90.00;;;;;;5028898;28;20029;-75
2022/07/08 03:13:56;;;;;;;1.67;0.80;;;19.50;90.00;;;;;;5010948;28;20026;-74
2022/07/08 03:16:22;;;;;;;1.42;0.80;;;19.50;89.80;;;;;;5029094;28;20504;-74
2022/07/08 03:18:47;;;;;;;1.88;1.08;;;19.50;89.70;;;;;;5011052;28;20025;-74
2022/07/08 03:21:13;;;;;;;1.48;0.73;;;19.50;89.70;;;;;;5027601;28;20033;-74
2022/07/08 03:23:38;;;;;;;2.08;0.90;;;19.50;89.50;;;;;;5011038;28;20598;-74
2022/07/08 03:26:04;;;;;;;2.05;0.85;;;19.60;89.60;;;;;;5016363;28;20029;-75
2022/07/08 03:28:29;;;;;;;2.15;1.00;;;19.50;89.50;;;;;;5028119;28;20216;-75
2022/07/08 03:30:55;;;;;;;3.08;0.80;;;19.50;89.50;;;;;;5009977;28;20488;-74
2022/07/08 03:33:20;;;;;;;2.00;1.00;;;19.50;89.60;;;;;;5019621;28;20044;-73
2022/07/08 03:35:46;;;;;;;1.52;0.85;;;19.50;89.70;;;;;;5005994;28;20037;-74
2022/07/08 03:38:11;;;;;;;2.47;0.90;;;19.50;89.70;;;;;;5028420;28;20095;-74
2022/07/08 03:43:21;;;;;;;2.05;0.98;;;19.50;89.80;;;;;;5027928;28;20080;-75
2022/07/08 03:45:47;;;;;;;2.50;0.90;;;19.50;89.80;;;;;;5002232;28;20021;-74
2022/07/08 03:48:13;;;;;;;2.55;1.10;;;19.40;89.80;;;;;;5028160;28;20033;-74
2022/07/08 03:50:38;;;;;;;2.65;0.93;;;19.50;90.00;;;;;;5001885;28;20018;-74
2022/07/08 03:53:04;;;;;;;2.17;1.10;;;19.40;90.20;;;;;;5009704;28;20033;-75
2022/07/08 03:55:29;;;;;;;1.67;1.00;;;19.50;90.00;;;;;;4994010;28;20026;-75
2022/07/08 03:57:56;;;;;;;2.50;0.90;;;19.40;90.00;;;;;;5027823;28;20025;-74
2022/07/08 04:00:22;;;;;;;1.98;0.90;;;19.50;90.00;;;;;;5028190;28;20101;-74
2022/07/08 04:02:48;;;;;;;2.22;0.98;;;19.40;90.00;;;;;;4998202;28;20029;-74
2022/07/08 04:05:14;;;;;;;1.90;0.80;;;19.50;90.00;;;;;;4992421;28;20026;-76
2022/07/08 04:07:39;;;;;;;3.58;1.02;;;19.50;89.80;;;;;;5026729;28;20104;-74
2022/07/08 04:10:06;;;;;;;2.08;0.90;;;19.50;89.80;;;;;;5001592;28;20026;-75
2022/07/08 04:12:31;;;;;;;1.52;0.90;;;19.50;89.60;;;;;;5001268;28;20030;-75
2022/07/08 04:14:57;;;;;;;1.95;0.80;;;19.50;89.50;;;;;;5010643;28;20911;-74
2022/07/08 04:17:23;;;;;;;1.83;0.75;;;19.50;89.60;;;;;;5010167;28;20049;-78
2022/07/08 04:19:48;;;;;;;1.83;0.85;;;19.50;89.50;;;;;;5027508;28;20033;-76
2022/07/08 04:22:14;;;;;;;2.08;0.90;;;19.50;89.60;;;;;;5027870;28;20068;-77
2022/07/08 04:24:39;;;;;;;1.45;0.70;;;19.50;89.60;;;;;;5027867;28;20041;-77
2022/07/08 04:27:05;;;;;;;2.22;1.08;;;19.50;89.70;;;;;;5009960;28;20102;-76
2022/07/08 04:29:30;;;;;;;1.52;0.70;;;19.50;89.80;;;;;;5028511;28;20029;-76
2022/07/08 04:31:56;;;;;;;1.77;0.80;;;19.50;89.90;;;;;;5009607;28;20190;-76
2022/07/08 04:34:21;;;;;;;0.95;0.73;;;19.40;89.80;;;;;;5010387;28;20028;-76
2022/07/08 04:36:47;;;;;;;1.65;0.88;;;19.40;89.80;;;;;;5007971;28;20497;-76
2022/07/08 04:39:12;;;;;;;1.60;0.85;;;19.40;90.00;;;;;;5011682;28;20033;-78
2022/07/08 04:41:38;;;;;;;1.40;0.80;;;19.40;90.00;;;;;;5009373;28;20048;-81
2022/07/08 04:44:03;;;;;;;1.70;0.88;;;19.50;90.00;;;;;;5010230;28;20538;-77
2022/07/08 04:46:29;;;;;;;2.70;1.20;;;19.40;90.00;;;;;;5011147;28;20025;-76
2022/07/08 04:48:54;;;;;;;2.30;0.90;;;19.40;90.00;;;;;;5010945;28;20037;-77
2022/07/08 04:51:20;;;;;;;1.33;0.80;;;19.40;90.00;;;;;;5010159;28;20029;-76
2022/07/08 04:53:45;;;;;;;1.92;0.90;;;19.40;90.00;;;;;;5010107;28;20036;-78
2022/07/08 04:56:11;;;;;;;1.55;0.80;;;19.40;89.90;;;;;;5027400;28;20973;-77
2022/07/08 04:58:36;;;;;;;2.17;0.90;;;19.50;89.80;;;;;;5010350;28;20053;-77
2022/07/08 05:01:02;;;;;;;2.22;1.00;;;19.50;89.70;;;;;;4992249;28;20489;-77
2022/07/08 05:03:28;;;;;;;1.52;0.90;;;19.50;89.60;;;;;;4998269;28;20022;-77
2022/07/08 05:05:53;;;;;;;1.50;0.80;;;19.50;89.60;;;;;;5026649;28;20030;-76
2022/07/08 05:08:19;;;;;;;1.40;0.70;;;19.50;89.50;;;;;;5026789;28;20044;-77
2022/07/08 05:10:44;;;;;;;2.53;0.82;;;19.50;89.50;;;;;;5008982;28;20021;-77
2022/07/08 05:13:10;;;;;;;1.98;0.98;;;19.50;89.50;;;;;;5004867;28;20038;-76
2022/07/08 05:15:35;;;;;;;2.22;0.90;;;19.50;89.50;;;;;;4989595;28;20026;-77
2022/07/08 05:18:01;;;;;;;1.63;0.90;;;19.50;89.70;;;;;;4989354;28;20112;-78
2022/07/08 05:20:26;;;;;;;3.15;1.00;;;19.50;89.80;;;;;;4989462;28;20026;-77
2022/07/08 05:22:52;;;;;;;1.98;0.80;;;19.40;90.10;;;;;;5024912;28;20043;-77
2022/07/08 05:25:17;;;;;;;1.58;0.95;;;19.40;89.90;;;;;;5009036;28;20650;-77
2022/07/08 05:27:43;;;;;;;2.50;0.85;;;19.40;89.80;;;;;;5005796;28;20515;-77
2022/07/08 05:30:10;;;;;;;2.08;0.80;;;19.40;89.90;;;;;;5025448;28;20029;-77
2022/07/08 05:32:36;;;;;;;2.97;1.00;;;19.40;90.00;;;;;;5026088;28;20041;-77
2022/07/08 05:35:04;;;;;;;1.65;0.98;;;19.40;90.00;;;;;;5025229;28;20057;-76
2022/07/08 05:37:31;;;;;;;2.67;0.85;;;19.40;89.90;;;;;;5008854;28;20558;-77
2022/07/08 05:39:56;;;;;;;2.42;1.00;;;19.40;89.80;;;;;;5008875;28;20420;-77
2022/07/08 05:42:22;;;;;;;3.05;1.00;;;19.40;89.80;;;;;;5009139;28;20032;-77
2022/07/08 05:44:47;;;;;;;1.95;0.80;;;19.40;89.60;;;;;;5026788;28;20036;-77
2022/07/08 05:47:13;;;;;;;4.50;1.15;;;19.40;89.50;;;;;;5027624;28;20435;-77
2022/07/08 05:49:39;;;;;;;4.05;1.00;;;19.40;89.40;;;;;;5008519;28;20031;-76
2022/07/08 05:52:06;;;;;;;2.45;0.88;;;19.50;89.40;;;;;;5009039;28;20051;-77
2022/07/08 05:54:32;;;;;;;1.75;0.82;;;19.50;89.30;;;;;;5026678;28;20022;-77
2022/07/08 05:56:58;;;;;;;2.00;1.00;;;19.50;89.20;;;;;;5008638;28;20110;-77
2022/07/08 05:59:24;;;;;;;3.55;1.00;;;19.50;89.00;;;;;;5009123;28;20523;-76
2022/07/08 06:01:49;;;;;;;2.50;0.90;;;19.50;89.00;;;;;;5008425;28;20041;-76
2022/07/08 06:04:15;;;;;;;2.83;1.00;;;19.40;88.90;;;;;;5009022;28;20034;-76
2022/07/08 06:06:40;;;;;;;1.60;0.90;;;19.50;89.00;;;;;;5008729;28;20296;-77
2022/07/08 06:09:06;;;;;;;2.03;1.02;;;19.50;89.20;;;;;;5005551;28;20026;-77
2022/07/08 06:11:31;;;;;;;1.92;0.90;;;19.50;89.30;;;;;;4997808;28;20037;-76
2022/07/08 06:13:57;;;;;;;2.63;0.90;;;19.50;89.30;;;;;;5021356;28;20053;-76
2022/07/08 06:16:22;;;;;;;1.85;0.90;;;19.50;89.30;;;;;;5025772;28;20037;-77
2022/07/08 06:18:48;;;;;;;2.35;0.82;;;19.50;89.30;;;;;;5024719;28;20655;-76
2022/07/08 06:21:13;;;;;;;2.55;0.98;;;19.50;89.40;;;;;;5007262;28;20083;-76
2022/07/08 06:23:39;;;;;;;1.92;0.90;;;19.40;89.30;;;;;;5024284;28;20075;-77
2022/07/08 06:26:04;;;;;;;2.05;0.82;;;19.50;89.30;;;;;;5007636;28;20060;-77
2022/07/08 06:28:30;;;;;;;4.35;0.95;;;19.40;89.10;;;;;;5007941;28;20112;-76
2022/07/08 06:30:56;;;;;;;3.55;1.08;;;19.40;88.90;;;;;;5007846;28;20651;-77
2022/07/08 06:33:21;;;;;;;4.30;1.20;;;19.50;89.00;;;;;;5007490;28;20087;-76
2022/07/08 06:35:47;;;;;;;2.25;0.98;;;19.50;88.90;;;;;;5025230;28;20353;-76
2022/07/08 06:38:13;;;;;;;3.38;1.23;;;19.40;88.80;;;;;;5025817;28;20047;-77
2022/07/08 06:40:39;;;;;;;1.58;0.80;;;19.50;88.90;;;;;;5007465;28;20362;-77
2022/07/08 06:43:04;;;;;;;3.70;1.10;;;19.50;88.80;;;;;;5024450;28;20040;-76
2022/07/08 06:45:32;;;;;;;2.03;1.00;;;19.50;88.60;;;;;;5008379;28;20049;-76
2022/07/08 06:48:01;;;;;;;3.72;1.30;;;19.60;88.40;;;;;;5025563;28;20683;-77
2022/07/08 06:50:27;;;;;;;2.92;1.00;;;19.60;88.30;;;;;;4994232;28;20460;-76
2022/07/08 06:52:53;;;;;;;2.88;1.23;;;19.60;88.30;;;;;;5024647;28;20264;-77
2022/07/08 06:55:18;;;;;;;2.20;0.93;;;19.60;88.20;;;;;;5007679;28;20037;-76
2022/07/08 06:57:44;;;;;;;3.75;1.10;;;19.60;88.40;;;;;;5003814;28;20030;-76
2022/07/08 07:00:10;;;;;;;3.50;1.08;;;19.60;88.40;;;;;;5005623;28;20049;-76
2022/07/08 07:02:35;;;;;;;2.50;0.90;;;19.60;88.40;;;;;;4987416;28;20029;-76
2022/07/08 07:05:01;;;;;;;2.95;1.10;;;19.60;88.40;;;;;;5005447;28;20091;-76
2022/07/08 07:07:27;;;;;;;2.63;1.10;;;19.60;88.30;;;;;;5013696;28;20033;-76
2022/07/08 07:09:53;;;;;;;3.00;0.88;;;19.60;88.30;;;;;;5025181;28;20079;-76
2022/07/08 07:12:19;;;;;;;2.97;0.90;;;19.60;88.20;;;;;;5024349;28;20041;-76
2022/07/08 07:14:44;;;;;;;1.52;0.73;;;19.60;88.20;;;;;;5024614;28;20030;-77
2022/07/08 07:17:10;;;;;;;1.17;0.80;;;19.60;88.20;;;;;;5023860;28;20044;-77
2022/07/08 07:19:35;;;;;;;4.05;1.02;;;19.60;88.30;;;;;;5024994;28;20588;-77
2022/07/08 07:22:01;;;;;;;1.55;1.00;;;19.60;88.40;;;;;;5006847;28;20492;-75
2022/07/08 07:24:27;;;;;;;3.03;1.00;;;19.60;88.50;;;;;;5007906;28;20121;-76
2022/07/08 07:26:52;;;;;;;3.90;1.00;;;19.60;88.40;;;;;;5024971;28;20489;-76
2022/07/08 07:29:18;;;;;;;4.22;1.10;;;19.50;88.40;;;;;;5007556;28;20035;-77
2022/07/08 07:31:43;;;;;;;1.48;0.90;;;19.60;88.50;;;;;;5006922;28;20531;-77
2022/07/08 07:34:09;;;;;;;1.95;0.90;;;19.60;88.50;;;;;;5007542;28;20124;-77
2022/07/08 07:36:34;;;;;;;2.50;1.02;;;19.60;88.30;;;;;;5007326;28;20037;-77
2022/07/08 07:39:00;;;;;;;4.05;1.23;;;19.70;88.10;;;;;;5014497;28;20052;-77
2022/07/08 07:41:25;;;;;;;2.35;0.80;;;19.80;87.70;;;;;;5018341;28;20128;-76
2022/07/08 07:43:51;;;;;;;2.78;0.90;;;19.80;87.50;;;;;;5024752;28;20511;-76
2022/07/08 07:46:16;;;;;;;2.80;0.95;;;19.80;87.30;;;;;;5023073;28;20349;-76
2022/07/08 07:48:43;;;;;;;2.05;0.90;;;19.90;87.20;;;;;;5023555;28;20497;-76
2022/07/08 07:51:08;;;;;;;2.53;0.90;;;19.80;87.10;;;;;;5007184;28;20069;-76
2022/07/08 07:53:34;;;;;;;2.83;1.00;;;19.90;87.10;;;;;;5025756;28;20071;-76
2022/07/08 07:55:59;;;;;;;3.47;1.02;;;19.90;87.20;;;;;;5026855;28;20044;-74
2022/07/08 07:58:25;;;;;;;2.40;1.10;;;19.80;87.20;;;;;;5027403;28;20079;-74
2022/07/08 08:00:52;;;;;;;3.25;1.10;;;19.80;87.30;;;;;;5027732;28;20139;-75
2022/07/08 08:03:17;;;;;;;3.33;1.10;;;19.80;87.40;;;;;;5026756;28;20033;-75
2022/07/08 08:05:43;;;;;;;2.05;0.88;;;19.80;87.50;;;;;;5028127;28;20452;-75
2022/07/08 08:08:12;;;;;;;2.35;0.90;;;19.80;87.50;;;;;;5027329;28;20112;-76
2022/07/08 08:10:38;;;;;;;2.40;1.05;;;19.80;87.20;;;;;;5027265;28;20086;-75
2022/07/08 08:13:04;;;;;;;2.88;0.95;;;19.80;87.20;;;;;;5027789;28;20282;-75
2022/07/08 08:15:31;;;;;;;2.25;1.00;;;19.90;87.30;;;;;;5026965;28;20068;-74
2022/07/08 08:17:57;;;;;;;2.20;0.95;;;19.80;87.10;;;;;;5028137;28;20184;-75
2022/07/08 08:20:27;;;;;;;3.00;1.20;;;19.80;87.10;;;;;;5026884;28;20061;-76
2022/07/08 08:22:53;;;;;;;3.45;1.50;;;19.80;87.40;;;;;;5026370;28;20033;-75
2022/07/08 08:25:20;;;;;;;1.85;0.90;;;19.80;87.50;;;;;;5027932;28;20560;-74
2022/07/08 08:27:46;;;;;;;3.00;1.10;;;19.90;87.30;;;;;;5028036;28;20040;-75
2022/07/08 08:30:13;;;;;;;1.13;0.80;;;19.80;87.20;;;;;;5028057;28;20021;-74
2022/07/08 08:32:38;;;;;;;4.28;1.10;;;19.90;87.10;;;;;;5027528;28;20029;-75
2022/07/08 08:35:04;;;;;;;3.47;1.10;;;19.90;87.00;;;;;;5026328;28;20091;-75
2022/07/08 08:37:30;;;;;;;2.00;0.95;;;19.90;86.80;;;;;;5026581;28;20128;-75
2022/07/08 08:39:55;;;;;;;2.40;0.90;;;20.00;86.70;;;;;;5026395;28;20035;-75
2022/07/08 08:42:22;;;;;;;1.88;1.00;;;19.90;86.70;;;;;;5027324;28;20032;-75
2022/07/08 08:44:51;;;;;;;4.13;1.02;;;19.90;86.70;;;;;;5025484;28;20034;-75
2022/07/08 08:47:17;;;;;;;2.50;1.10;;;19.90;86.90;;;;;;5026412;28;20026;-76
2022/07/08 08:49:43;;;;;;;1.95;1.00;;;19.90;86.90;;;;;;5021094;28;20036;-75
2022/07/08 08:52:15;;;;;;;2.90;1.10;;;19.90;87.00;;;;;;5031753;28;20033;-75
2022/07/08 08:54:41;;;;;;;2.92;1.27;;;19.90;86.90;;;;;;5026425;28;20026;-75
2022/07/08 08:57:07;;;;;;;2.80;1.08;;;19.90;86.80;;;;;;5024514;28;20538;-74
2022/07/08 08:59:35;;;;;;;1.55;0.90;;;19.90;86.90;;;;;;5026819;28;20075;-75
2022/07/08 09:02:01;;;;;;;2.05;0.85;;;19.90;86.80;;;;;;5004619;28;20032;-75
2022/07/08 09:04:33;;;;;;;2.67;0.90;;;19.90;86.70;;;;;;5000916;28;20038;-75
2022/07/08 09:06:59;;;;;;;2.55;1.00;;;20.00;86.80;;;;;;4996840;28;20013;-75
2022/07/08 09:09:25;;;;;;;2.55;1.10;;;19.90;86.80;;;;;;5000853;28;20056;-75
2022/07/08 09:11:51;;;;;;;1.85;1.10;;;19.90;86.80;;;;;;4996490;28;20423;-75
2022/07/08 09:14:21;;;;;;;2.28;0.90;;;19.90;86.90;;;;;;5026867;28;20029;-75
2022/07/08 09:17:10;;;;;;;2.43;1.23;;;20.00;86.90;;;;;;5003382;28;20116;-75
2022/07/08 09:19:41;;;;;;;2.08;1.02;;;20.00;86.80;;;;;;5012019;28;20268;-74
2022/07/08 09:22:08;;;;;;;1.35;0.90;;;20.00;86.70;;;;;;5010416;28;20044;-75
2022/07/08 09:24:35;;;;;;;2.90;1.05;;;20.00;86.50;;;;;;5008509;28;20030;-75
2022/07/08 09:27:08;;;;;;;1.63;0.98;;;20.00;86.50;;;;;;5025270;28;20108;-75
2022/07/08 09:29:35;;;;;;;1.85;1.00;;;20.00;86.40;;;;;;5010898;28;20085;-74
2022/07/08 09:32:15;;;;;;;3.20;1.10;;;20.00;86.50;;;;;;4988987;28;20652;-74
2022/07/08 09:34:41;;;;;;;2.17;1.05;;;20.00;86.50;;;;;;5006822;28;20041;-75
2022/07/08 09:37:16;;;;;;;2.90;1.17;;;20.00;86.60;;;;;;5006979;28;20514;-75
2022/07/08 09:39:42;;;;;;;0.98;0.80;;;20.00;86.70;;;;;;4989304;28;20454;-75
2022/07/08 09:42:09;;;;;;;1.83;0.80;;;20.00;86.70;;;;;;5006556;28;20040;-75
2022/07/08 09:44:36;;;;;;;2.38;1.08;;;19.90;86.70;;;;;;5006991;28;20034;-75
2022/07/08 09:47:13;;;;;;;1.88;1.00;;;19.90;86.80;;;;;;4988908;28;20034;-74
2022/07/08 09:49:40;;;;;;;2.35;1.08;;;20.00;86.90;;;;;;5006807;28;20030;-74
2022/07/08 09:52:06;;;;;;;2.60;0.90;;;19.90;86.90;;;;;;5006622;28;20030;-74
2022/07/08 09:54:32;;;;;;;1.83;0.95;;;19.90;86.90;;;;;;4988970;28;20187;-74
2022/07/08 09:57:02;;;;;;;1.95;0.90;;;19.90;87.00;;;;;;5006627;28;20029;-74
2022/07/08 09:59:29;;;;;;;2.50;1.00;;;19.90;87.00;;;;;;5006704;28;20088;-75
2022/07/08 10:01:54;;;;;;;1.33;0.82;;;19.90;87.00;;;;;;5006005;28;20065;-74
2022/07/08 10:04:23;;;;;;;1.92;0.95;;;19.90;87.10;;;;;;4988913;28;20050;-75
2022/07/08 10:06:50;;;;;;;1.35;0.90;;;19.90;87.10;;;;;;5006398;28;20591;-76
2022/07/08 10:09:16;;;;;;;1.77;1.00;;;19.90;87.00;;;;;;4988781;28;20034;-75
2022/07/08 10:11:43;;;;;;;2.65;1.10;;;20.00;86.90;;;;;;4988395;28;20022;-75
2022/07/08 10:14:09;;;;;;;1.75;1.02;;;20.00;86.70;;;;;;5006021;28;20036;-75
2022/07/08 10:16:36;;;;;;;1.40;1.00;;;20.00;86.50;;;;;;5008033;28;20034;-74
2022/07/08 10:19:05;;;;;;;1.65;0.82;;;20.00;86.50;;;;;;5004913;28;20040;-74
2022/07/08 10:21:33;;;;;;;1.75;0.98;;;20.10;86.40;;;;;;5005552;28;20091;-75
2022/07/08 10:23:59;;;;;;;2.15;1.08;;;20.00;86.50;;;;;;5005868;28;20029;-75
2022/07/08 10:26:31;;;;;;;1.38;0.90;;;20.00;86.50;;;;;;5022173;28;20025;-76
2022/07/08 10:29:01;;;;;;;2.05;1.10;;;20.00;86.70;;;;;;5025487;28;20029;-75
2022/07/08 10:31:29;;;;;;;2.22;0.90;;;19.90;86.70;;;;;;4991128;28;20029;-75
2022/07/08 10:34:01;;;;;;;2.17;1.00;;;19.90;86.90;;;;;;4989501;28;20057;-75
2022/07/08 10:36:26;;;;;;;0.88;0.80;;;19.90;87.00;;;;;;5006101;28;20033;-75
2022/07/08 10:38:54;;;;;;;1.65;1.02;;;19.90;87.10;;;;;;4993925;28;20460;-74
2022/07/08 10:41:23;;;;;;;2.17;1.20;;;19.90;87.10;;;;;;5006537;28;20055;-75
2022/07/08 10:43:53;;;;;;;1.50;0.95;;;19.90;87.20;;;;;;5000079;28;20483;-75
2022/07/08 10:46:20;;;;;;;1.65;1.05;;;19.90;87.30;;;;;;5007046;28;20103;-75
2022/07/08 10:48:47;;;;;;;2.40;1.20;;;19.90;87.20;;;;;;5025174;28;20018;-75
2022/07/08 10:51:23;;;;;;;1.65;0.90;;;19.90;87.20;;;;;;4991004;28;20029;-75
2022/07/08 10:54:01;;;;;;;1.73;1.00;;;19.90;87.20;;;;;;5024533;28;20037;-75
2022/07/08 10:56:47;;;;;;;1.92;1.10;;;19.90;87.30;;;;;;4992453;28;20475;-76
2022/07/08 10:59:20;;;;;;;1.77;0.90;;;19.90;87.20;;;;;;5022473;28;20281;-75
2022/07/08 11:01:50;;;;;;;2.33;0.98;;;19.90;87.10;;;;;;5024385;28;20030;-75
2022/07/08 11:04:27;;;;;;;2.00;1.00;;;20.00;86.90;;;;;;5025422;28;20029;-75
2022/07/08 11:06:55;;;;;;;2.22;1.02;;;20.00;86.70;;;;;;5007691;28;20315;-74
2022/07/08 11:09:23;;;;;;;1.98;0.90;;;20.00;86.60;;;;;;4998864;28;20033;-75
2022/07/08 11:11:49;;;;;;;2.95;1.10;;;20.00;86.50;;;;;;5005425;28;20241;-76
2022/07/08 11:14:15;;;;;;;3.08;1.20;;;20.00;86.60;;;;;;4987902;28;20061;-75
2022/07/08 11:16:41;;;;;;;2.45;1.10;;;20.00;86.70;;;;;;5005756;28;20111;-74
2022/07/08 11:19:07;;;;;;;1.30;0.82;;;20.00;86.70;;;;;;4987955;28;20397;-75
2022/07/08 11:21:33;;;;;;;1.42;0.93;;;20.00;86.90;;;;;;4989414;28;20030;-75
2022/07/08 11:23:59;;;;;;;2.45;1.00;;;19.90;86.90;;;;;;5024164;28;20025;-75
2022/07/08 11:26:24;;;;;;;2.22;1.10;;;19.90;87.10;;;;;;5006372;28;20022;-75
2022/07/08 11:28:50;;;;;;;2.00;1.10;;;19.90;87.20;;;;;;4997446;28;20033;-76
2022/07/08 11:31:26;;;;;;;1.13;0.80;;;19.90;87.20;;;;;;4996909;28;20487;-75
2022/07/08 11:33:52;;;;;;;1.52;0.95;;;19.90;87.30;;;;;;5010314;28;20485;-75
2022/07/08 11:36:19;;;;;;;1.83;1.08;;;19.90;87.30;;;;;;5029005;28;20040;-75
2022/07/08 11:38:46;;;;;;;1.58;1.13;;;19.80;87.30;;;;;;5011193;28;20040;-75
2022/07/08 11:41:12;;;;;;;1.83;1.00;;;19.90;87.40;;;;;;5028656;28;20297;-75
2022/07/08 11:43:38;;;;;;;1.58;1.00;;;19.80;87.40;;;;;;5028419;28;20152;-75
2022/07/08 11:46:13;;;;;;;1.33;1.00;;;19.80;87.40;;;;;;4991844;28;20514;-74
2022/07/08 11:48:39;;;;;;;2.15;1.00;;;19.90;87.50;;;;;;4996641;28;20640;-76
2022/07/08 11:51:04;;;;;;;1.70;0.90;;;19.90;87.40;;;;;;5009324;28;20021;-74
2022/07/08 11:53:30;;;;;;;2.47;1.10;;;19.90;87.30;;;;;;5028448;28;20404;-75
2022/07/08 11:55:56;;;;;;;1.88;0.90;;;19.90;87.30;;;;;;5007583;28;20033;-75
2022/07/08 11:58:23;;;;;;;1.50;0.80;;;19.90;87.20;;;;;;5007831;28;20026;-76
2022/07/08 12:00:49;;;;;;;2.28;1.00;;;19.90;87.10;;;;;;5008867;28;20498;-74
2022/07/08 12:03:15;;;;;;;0.95;0.82;;;19.90;87.10;;;;;;5028085;28;20034;-76
2022/07/08 12:05:40;;;;;;;1.58;1.00;;;19.90;87.10;;;;;;5029579;28;20087;-78
2022/07/08 12:08:12;;;;;;;0.88;0.80;;;19.90;87.10;;;;;;5009598;28;20631;-78
2022/07/08 12:10:38;;;;;;;1.58;1.00;;;19.90;87.20;;;;;;5005946;28;20140;-76
2022/07/08 12:13:03;;;;;;;2.40;1.05;;;19.90;87.30;;;;;;5010444;28;20104;-77
2022/07/08 12:15:37;;;;;;;1.98;1.00;;;19.90;87.50;;;;;;5001019;28;20029;-78
2022/07/08 12:18:04;;;;;;;1.27;1.00;;;19.80;87.50;;;;;;5028991;28;20029;-77
2022/07/08 12:20:31;;;;;;;1.60;0.90;;;19.80;87.60;;;;;;5007954;28;20405;-77
2022/07/08 12:22:57;;;;;;;1.45;0.95;;;19.80;87.60;;;;;;5000799;28;20026;-77
2022/07/08 12:25:22;;;;;;;1.63;1.00;;;19.80;87.70;;;;;;5010266;28;20036;-76
2022/07/08 12:28:00;;;;;;;1.70;0.90;;;19.80;87.80;;;;;;5028196;28;20025;-76
2022/07/08 12:30:27;;;;;;;1.75;1.00;;;19.80;87.80;;;;;;4997846;28;20025;-79
2022/07/08 12:32:58;;;;;;;2.15;1.00;;;19.70;87.70;;;;;;5028194;28;20065;-77
2022/07/08 12:35:29;;;;;;;1.98;0.90;;;19.80;87.80;;;;;;5028250;28;20041;-77
2022/07/08 12:38:14;;;;;;;1.92;1.13;;;19.80;87.70;;;;;;5025980;28;20034;-77
2022/07/08 12:40:42;;;;;;;2.33;0.98;;;19.80;87.60;;;;;;5026478;28;20504;-77
2022/07/08 12:43:09;;;;;;;2.25;1.00;;;19.80;87.50;;;;;;5009213;28;20456;-77
2022/07/08 12:45:35;;;;;;;1.92;0.90;;;19.90;87.50;;;;;;5027666;28;20101;-77
2022/07/08 12:48:02;;;;;;;1.10;1.00;;;19.90;87.30;;;;;;5013885;28;20116;-82
2022/07/08 12:50:28;;;;;;;1.90;1.00;;;19.90;87.10;;;;;;5012310;28;20032;-77